createdAt,value
2023-02-02T00:00:11.562Z,6.87
2023-02-02T00:01:11.539Z,6.90
2023-02-02T00:02:11.520Z,6.86
2023-02-02T00:03:11.514Z,6.83
2023-02-02T00:04:11.518Z,6.82
2023-02-02T00:05:11.489Z,6.90
2023-02-02T00:06:11.474Z,6.91
2023-02-02T00:07:11.479Z,6.93
2023-02-02T00:08:11.454Z,6.93
2023-02-02T00:09:11.447Z,6.87
2023-02-02T00:10:11.432Z,6.86
2023-02-02T00:11:11.422Z,6.90
2023-02-02T00:12:11.410Z,6.86
2023-02-02T00:13:11.399Z,6.89
2023-02-02T00:14:11.387Z,6.91
2023-02-02T00:15:11.386Z,6.90
2023-02-02T00:16:11.417Z,6.90
2023-02-02T00:17:11.359Z,6.89
2023-02-02T00:18:11.343Z,6.93
2023-02-02T00:19:11.359Z,6.90
2023-02-02T00:20:11.321Z,6.87
2023-02-02T00:21:11.315Z,6.90
2023-02-02T00:22:11.299Z,6.82
2023-02-02T00:23:11.296Z,6.78
2023-02-02T00:24:11.276Z,6.72
2023-02-02T00:25:11.268Z,6.72
2023-02-02T00:26:11.254Z,6.73
2023-02-02T00:27:11.253Z,6.78
2023-02-02T00:28:11.250Z,6.86
2023-02-02T00:29:11.223Z,6.87
2023-02-02T00:30:11.215Z,6.94
2023-02-02T00:31:11.265Z,6.97
2023-02-02T00:32:11.215Z,6.93
2023-02-02T00:33:11.204Z,6.91
2023-02-02T00:34:11.189Z,6.87
2023-02-02T00:35:11.175Z,6.81
2023-02-02T00:36:11.145Z,6.81
2023-02-02T00:37:11.135Z,6.78
2023-02-02T00:38:11.129Z,6.76
2023-02-02T00:39:11.115Z,6.81
2023-02-02T00:40:11.103Z,6.76
2023-02-02T00:41:11.089Z,6.76
2023-02-02T00:42:11.083Z,6.72
2023-02-02T00:43:11.081Z,6.68
2023-02-02T00:44:11.067Z,6.72
2023-02-02T00:45:11.053Z,6.76
2023-02-02T00:46:11.035Z,6.73
2023-02-02T00:47:11.028Z,6.75
2023-02-02T00:48:11.095Z,6.81
2023-02-02T00:49:11.008Z,6.75
2023-02-02T00:50:10.991Z,6.72
2023-02-02T00:51:10.983Z,6.68
2023-02-02T00:52:10.970Z,6.71
2023-02-02T00:53:10.964Z,6.68
2023-02-02T00:54:10.948Z,6.65
2023-02-02T00:55:11.000Z,6.69
2023-02-02T00:56:10.925Z,6.68
2023-02-02T00:57:10.916Z,6.69
2023-02-02T00:58:10.905Z,6.75
2023-02-02T00:59:10.893Z,6.78
2023-02-02T01:00:10.894Z,6.75
2023-02-02T01:01:10.905Z,6.69
2023-02-02T01:02:11.007Z,6.68
2023-02-02T01:03:10.851Z,6.58
2023-02-02T01:04:10.864Z,6.57
2023-02-02T01:05:10.832Z,6.55
2023-02-02T01:06:10.815Z,6.51
2023-02-02T01:07:10.837Z,6.50
2023-02-02T01:08:10.805Z,6.43
2023-02-02T01:09:10.785Z,6.48
2023-02-02T01:10:10.798Z,6.43
2023-02-02T01:11:10.761Z,6.35
2023-02-02T01:12:10.775Z,6.27
2023-02-02T01:13:10.742Z,6.28
2023-02-02T01:14:10.726Z,6.25
2023-02-02T01:15:10.722Z,6.32
2023-02-02T01:16:10.794Z,6.40
2023-02-02T01:17:10.694Z,6.38
2023-02-02T01:18:10.685Z,6.39
2023-02-02T01:19:10.674Z,6.35
2023-02-02T01:20:10.683Z,6.33
2023-02-02T01:21:10.652Z,6.32
2023-02-02T01:22:10.640Z,6.32
2023-02-02T01:23:10.632Z,6.28
2023-02-02T01:24:10.623Z,6.32
2023-02-02T01:25:10.604Z,6.35
2023-02-02T01:26:10.604Z,6.35
2023-02-02T01:27:10.590Z,6.35
2023-02-02T01:28:10.573Z,6.38
2023-02-02T01:29:10.569Z,6.36
2023-02-02T01:30:10.550Z,6.38
2023-02-02T01:31:10.599Z,6.39
2023-02-02T01:32:10.540Z,6.36
2023-02-02T01:33:10.517Z,6.33
2023-02-02T01:34:10.506Z,6.28
2023-02-02T01:35:10.505Z,6.24
2023-02-02T01:36:10.507Z,6.21
2023-02-02T01:37:10.475Z,6.17
2023-02-02T01:38:10.463Z,6.16
2023-02-02T01:39:10.453Z,6.13
2023-02-02T01:40:10.441Z,6.10
2023-02-02T01:41:10.430Z,6.06
2023-02-02T01:42:10.421Z,6.08
2023-02-02T01:43:10.418Z,6.13
2023-02-02T01:44:10.394Z,6.13
2023-02-02T01:45:10.391Z,6.11
2023-02-02T01:46:10.473Z,6.17
2023-02-02T01:47:10.363Z,6.14
2023-02-02T01:48:10.350Z,6.17
2023-02-02T01:49:10.345Z,6.19
2023-02-02T01:50:10.331Z,6.21
2023-02-02T01:51:10.319Z,6.20
2023-02-02T01:52:10.333Z,6.19
2023-02-02T01:53:10.295Z,6.21
2023-02-02T01:54:10.283Z,6.24
2023-02-02T01:55:10.282Z,6.24
2023-02-02T01:56:10.261Z,6.20
2023-02-02T01:57:10.251Z,6.17
2023-02-02T01:58:10.239Z,6.14
2023-02-02T01:59:10.236Z,6.11
2023-02-02T02:00:10.236Z,6.10
2023-02-02T02:01:10.267Z,6.08
2023-02-02T02:02:10.219Z,6.06
2023-02-02T02:03:10.188Z,6.02
2023-02-02T02:04:10.172Z,6.01
2023-02-02T02:05:10.166Z,6.02
2023-02-02T02:06:10.151Z,6.05
2023-02-02T02:07:10.143Z,6.02
2023-02-02T02:08:10.155Z,5.96
2023-02-02T02:09:10.123Z,5.96
2023-02-02T02:10:10.109Z,5.95
2023-02-02T02:11:10.098Z,5.92
2023-02-02T02:12:10.084Z,5.90
2023-02-02T02:13:10.094Z,5.88
2023-02-02T02:14:10.072Z,5.88
2023-02-02T02:15:10.052Z,5.90
2023-02-02T02:16:10.070Z,5.93
2023-02-02T02:17:10.033Z,5.88
2023-02-02T02:18:10.021Z,5.92
2023-02-02T02:19:10.010Z,5.96
2023-02-02T02:20:09.998Z,6.01
2023-02-02T02:21:09.991Z,6.02
2023-02-02T02:22:09.979Z,6.02
2023-02-02T02:23:09.966Z,6.01
2023-02-02T02:24:09.978Z,5.98
2023-02-02T02:25:09.944Z,5.96
2023-02-02T02:26:09.933Z,5.98
2023-02-02T02:27:09.927Z,6.01
2023-02-02T02:28:09.917Z,6.03
2023-02-02T02:29:09.909Z,6.05
2023-02-02T02:30:09.890Z,6.10
2023-02-02T02:31:09.961Z,6.05
2023-02-02T02:32:09.866Z,6.02
2023-02-02T02:33:09.859Z,6.03
2023-02-02T02:34:09.844Z,6.03
2023-02-02T02:35:09.841Z,6.02
2023-02-02T02:36:09.822Z,6.01
2023-02-02T02:37:09.821Z,6.06
2023-02-02T02:38:09.809Z,6.06
2023-02-02T02:39:09.796Z,6.08
2023-02-02T02:40:09.800Z,6.11
2023-02-02T02:41:09.769Z,6.20
2023-02-02T02:42:09.764Z,6.28
2023-02-02T02:43:09.754Z,6.27
2023-02-02T02:44:09.736Z,6.30
2023-02-02T02:45:09.724Z,6.32
2023-02-02T02:46:09.746Z,6.25
2023-02-02T02:47:09.704Z,6.14
2023-02-02T02:48:09.690Z,6.08
2023-02-02T02:49:09.678Z,6.05
2023-02-02T02:50:09.677Z,6.11
2023-02-02T02:51:09.660Z,6.13
2023-02-02T02:52:09.647Z,6.19
2023-02-02T02:53:09.635Z,6.20
2023-02-02T02:54:09.626Z,6.19
2023-02-02T02:55:09.613Z,6.13
2023-02-02T02:56:09.628Z,6.11
2023-02-02T02:57:09.591Z,6.06
2023-02-02T02:58:09.587Z,6.03
2023-02-02T02:59:09.585Z,6.06
2023-02-02T03:00:09.561Z,6.02
2023-02-02T03:01:09.665Z,6.05
2023-02-02T03:02:09.537Z,6.10
2023-02-02T03:03:09.529Z,6.14
2023-02-02T03:04:09.516Z,6.19
2023-02-02T03:05:09.503Z,6.16
2023-02-02T03:06:09.508Z,6.21
2023-02-02T03:07:09.481Z,6.17
2023-02-02T03:08:09.472Z,6.17
2023-02-02T03:09:09.457Z,6.11
2023-02-02T03:10:09.452Z,6.10
2023-02-02T03:11:09.436Z,6.08
2023-02-02T03:12:09.475Z,6.13
2023-02-02T03:13:09.418Z,6.13
2023-02-02T03:14:09.411Z,6.11
2023-02-02T03:15:09.395Z,6.10
2023-02-02T03:16:09.422Z,6.08
2023-02-02T03:17:09.370Z,6.08
2023-02-02T03:18:09.369Z,6.14
2023-02-02T03:19:09.365Z,6.14
2023-02-02T03:20:09.339Z,6.14
2023-02-02T03:21:09.419Z,6.13
2023-02-02T03:22:09.324Z,6.13
2023-02-02T03:23:09.304Z,6.10
2023-02-02T03:24:09.304Z,6.08
2023-02-02T03:25:09.283Z,6.06
2023-02-02T03:26:09.279Z,6.01
2023-02-02T03:27:09.261Z,6.01
2023-02-02T03:28:09.277Z,5.96
2023-02-02T03:29:09.239Z,5.95
2023-02-02T03:30:09.230Z,5.87
2023-02-02T03:31:09.332Z,5.83
2023-02-02T03:32:09.208Z,5.78
2023-02-02T03:33:09.198Z,5.78
2023-02-02T03:34:09.187Z,5.70
2023-02-02T03:35:09.174Z,5.66
2023-02-02T03:36:09.174Z,5.62
2023-02-02T03:37:09.151Z,5.55
2023-02-02T03:38:09.144Z,5.52
2023-02-02T03:39:09.151Z,5.52
2023-02-02T03:40:09.121Z,5.58
2023-02-02T03:41:09.108Z,5.59
2023-02-02T03:42:09.099Z,5.58
2023-02-02T03:43:09.085Z,5.52
2023-02-02T03:44:09.101Z,5.48
2023-02-02T03:45:09.067Z,5.44
2023-02-02T03:46:09.129Z,5.40
2023-02-02T03:47:09.052Z,5.35
2023-02-02T03:48:09.035Z,5.32
2023-02-02T03:49:09.021Z,5.26
2023-02-02T03:50:09.963Z,5.23
2023-02-02T03:51:09.020Z,5.26
2023-02-02T03:52:08.989Z,5.24
2023-02-02T03:53:08.979Z,5.23
2023-02-02T03:54:08.968Z,5.19
2023-02-02T03:55:08.955Z,5.14
2023-02-02T03:56:08.948Z,5.15
2023-02-02T03:57:08.934Z,5.09
2023-02-02T03:58:08.924Z,5.09
2023-02-02T03:59:08.912Z,5.08
2023-02-02T04:00:08.927Z,5.05
2023-02-02T04:01:08.892Z,5.09
2023-02-02T04:02:08.881Z,5.04
2023-02-02T04:03:08.961Z,4.99
2023-02-02T04:04:08.859Z,5.02
2023-02-02T04:05:08.851Z,4.99
2023-02-02T04:06:08.838Z,5.02
2023-02-02T04:07:08.827Z,5.04
2023-02-02T04:08:08.816Z,5.05
2023-02-02T04:09:08.803Z,5.02
2023-02-02T04:10:08.792Z,5.02
2023-02-02T04:11:08.782Z,4.96
2023-02-02T04:12:08.774Z,4.94
2023-02-02T04:13:08.782Z,4.91
2023-02-02T04:14:08.747Z,4.88
2023-02-02T04:15:08.733Z,4.87
2023-02-02T04:16:08.811Z,4.83
2023-02-02T04:17:08.712Z,4.80
2023-02-02T04:18:08.702Z,4.86
2023-02-02T04:19:08.692Z,4.88
2023-02-02T04:20:08.687Z,4.87
2023-02-02T04:21:08.667Z,4.86
2023-02-02T04:22:08.657Z,4.77
2023-02-02T04:23:08.649Z,4.75
2023-02-02T04:24:08.634Z,4.72
2023-02-02T04:25:08.630Z,4.69
2023-02-02T04:26:08.613Z,4.64
2023-02-02T04:27:08.600Z,4.64
2023-02-02T04:28:08.593Z,4.59
2023-02-02T04:29:08.577Z,4.67
2023-02-02T04:30:08.566Z,4.64
2023-02-02T04:31:08.721Z,4.61
2023-02-02T04:32:08.571Z,4.62
2023-02-02T04:33:08.531Z,4.59
2023-02-02T04:34:08.529Z,4.56
2023-02-02T04:35:08.513Z,4.49
2023-02-02T04:36:08.502Z,4.46
2023-02-02T04:37:08.483Z,4.43
2023-02-02T04:38:09.330Z,4.46
2023-02-02T04:39:08.464Z,4.51
2023-02-02T04:40:08.463Z,4.54
2023-02-02T04:41:08.439Z,4.57
2023-02-02T04:42:08.434Z,4.64
2023-02-02T04:43:08.417Z,4.67
2023-02-02T04:44:08.411Z,4.69
2023-02-02T04:45:08.397Z,4.74
2023-02-02T04:46:08.509Z,4.71
2023-02-02T04:47:08.374Z,4.69
2023-02-02T04:48:08.381Z,4.74
2023-02-02T04:49:08.345Z,4.74
2023-02-02T04:50:08.344Z,4.74
2023-02-02T04:51:08.326Z,4.68
2023-02-02T04:52:08.315Z,4.68
2023-02-02T04:53:08.345Z,4.65
2023-02-02T04:54:08.291Z,4.65
2023-02-02T04:55:08.309Z,4.62
2023-02-02T04:56:08.321Z,4.62
2023-02-02T04:57:08.429Z,4.57
2023-02-02T04:58:08.356Z,4.61
2023-02-02T04:59:08.341Z,4.59
2023-02-02T05:01:08.316Z,4.57
2023-02-02T05:02:08.414Z,4.56
2023-02-02T05:03:08.210Z,4.56
2023-02-02T05:04:08.314Z,4.56
2023-02-02T05:05:08.166Z,4.54
2023-02-02T05:06:08.165Z,4.56
2023-02-02T05:07:08.150Z,4.62
2023-02-02T05:08:08.137Z,4.61
2023-02-02T05:09:08.122Z,4.62
2023-02-02T05:10:08.109Z,4.57
2023-02-02T05:11:08.113Z,4.67
2023-02-02T05:12:08.087Z,4.71
2023-02-02T05:13:08.075Z,4.77
2023-02-02T05:14:08.098Z,4.75
2023-02-02T05:15:08.055Z,4.72
2023-02-02T05:16:08.179Z,4.68
2023-02-02T05:17:08.039Z,4.68
2023-02-02T05:18:08.018Z,4.69
2023-02-02T05:19:08.009Z,4.69
2023-02-02T05:20:08.026Z,4.69
2023-02-02T05:21:07.981Z,4.65
2023-02-02T05:22:07.976Z,4.68
2023-02-02T05:23:07.968Z,4.75
2023-02-02T05:24:07.953Z,4.86
2023-02-02T05:25:07.958Z,4.86
2023-02-02T05:26:07.944Z,4.86
2023-02-02T05:27:07.948Z,4.90
2023-02-02T05:28:07.915Z,4.96
2023-02-02T05:29:07.894Z,4.93
2023-02-02T05:30:07.892Z,4.91
2023-02-02T05:31:08.005Z,4.94
2023-02-02T05:32:07.988Z,4.97
2023-02-02T05:33:07.861Z,4.96
2023-02-02T05:34:07.837Z,4.93
2023-02-02T05:35:07.826Z,4.96
2023-02-02T05:36:07.846Z,4.96
2023-02-02T05:37:07.803Z,4.97
2023-02-02T05:38:07.794Z,4.94
2023-02-02T05:39:07.777Z,4.90
2023-02-02T05:40:07.767Z,4.84
2023-02-02T05:41:07.761Z,4.84
2023-02-02T05:42:07.745Z,4.80
2023-02-02T05:43:07.733Z,4.79
2023-02-02T05:44:07.723Z,4.79
2023-02-02T05:45:07.710Z,4.74
2023-02-02T05:46:07.746Z,4.65
2023-02-02T05:47:07.691Z,4.65
2023-02-02T05:48:07.686Z,4.67
2023-02-02T05:49:07.672Z,4.68
2023-02-02T05:50:07.662Z,4.79
2023-02-02T05:51:07.642Z,4.80
2023-02-02T05:52:07.656Z,4.77
2023-02-02T05:53:07.619Z,4.69
2023-02-02T05:54:07.607Z,4.65
2023-02-02T05:55:07.595Z,4.68
2023-02-02T05:56:07.586Z,4.80
2023-02-02T05:57:07.580Z,4.86
2023-02-02T05:58:07.580Z,4.87
2023-02-02T05:59:07.587Z,4.86
2023-02-02T06:00:07.553Z,4.80
2023-02-02T06:01:07.531Z,4.71
2023-02-02T06:02:07.517Z,4.64
2023-02-02T06:03:07.607Z,4.59
2023-02-02T06:04:07.587Z,4.59
2023-02-02T06:05:07.480Z,4.59
2023-02-02T06:06:07.481Z,4.64
2023-02-02T06:07:07.459Z,4.64
2023-02-02T06:08:07.474Z,4.62
2023-02-02T06:09:07.442Z,4.54
2023-02-02T06:10:07.427Z,4.53
2023-02-02T06:11:07.420Z,4.51
2023-02-02T06:12:07.404Z,4.54
2023-02-02T06:13:07.391Z,4.53
2023-02-02T06:14:07.380Z,4.53
2023-02-02T06:15:07.374Z,4.50
2023-02-02T06:16:07.416Z,4.47
2023-02-02T06:17:07.347Z,4.39
2023-02-02T06:18:07.335Z,4.36
2023-02-02T06:19:07.321Z,4.44
2023-02-02T06:20:07.318Z,4.44
2023-02-02T06:21:07.313Z,4.46
2023-02-02T06:22:07.294Z,4.44
2023-02-02T06:23:07.295Z,4.39
2023-02-02T06:24:07.298Z,4.36
2023-02-02T06:25:07.260Z,4.32
2023-02-02T06:26:07.248Z,4.34
2023-02-02T06:27:07.240Z,4.31
2023-02-02T06:28:07.226Z,4.29
2023-02-02T06:29:07.215Z,4.42
2023-02-02T06:30:07.209Z,4.43
2023-02-02T06:31:07.336Z,4.43
2023-02-02T06:32:07.217Z,4.49
2023-02-02T06:33:07.168Z,4.49
2023-02-02T06:34:07.159Z,4.51
2023-02-02T06:35:07.149Z,4.50
2023-02-02T06:36:07.136Z,4.51
2023-02-02T06:37:07.125Z,4.54
2023-02-02T06:38:07.116Z,4.56
2023-02-02T06:39:07.100Z,4.51
2023-02-02T06:40:07.116Z,4.50
2023-02-02T06:41:07.098Z,4.43
2023-02-02T06:42:20.434Z,4.42
2023-02-02T06:43:07.053Z,4.35
2023-02-02T06:44:07.042Z,4.43
2023-02-02T06:45:07.032Z,4.46
2023-02-02T06:46:07.063Z,4.49
2023-02-02T06:47:07.013Z,4.46
2023-02-02T06:48:07.001Z,4.43
2023-02-02T06:49:06.988Z,4.39
2023-02-02T06:50:06.977Z,4.42
2023-02-02T06:51:06.970Z,4.43
2023-02-02T06:52:06.967Z,4.43
2023-02-02T06:53:06.956Z,4.42
2023-02-02T06:54:06.933Z,4.36
2023-02-02T06:55:06.922Z,4.35
2023-02-02T06:56:06.939Z,4.38
2023-02-02T06:57:06.906Z,4.38
2023-02-02T06:58:06.889Z,4.39
2023-02-02T06:59:06.879Z,4.44
2023-02-02T07:00:06.867Z,4.39
2023-02-02T07:01:06.931Z,4.34
2023-02-02T07:02:06.849Z,4.34
2023-02-02T07:03:06.989Z,4.38
2023-02-02T07:04:06.821Z,4.36
2023-02-02T07:05:06.823Z,4.38
2023-02-02T07:06:06.803Z,4.43
2023-02-02T07:07:06.788Z,4.44
2023-02-02T07:08:06.778Z,4.46
2023-02-02T07:09:06.778Z,4.43
2023-02-02T07:10:06.763Z,4.38
2023-02-02T07:11:14.235Z,4.42
2023-02-02T07:12:06.770Z,4.43
2023-02-02T07:13:06.750Z,4.43
2023-02-02T07:14:06.714Z,4.44
2023-02-02T07:15:06.703Z,4.43
2023-02-02T07:16:06.831Z,4.39
2023-02-02T07:17:06.680Z,4.38
2023-02-02T07:18:06.672Z,4.38
2023-02-02T07:19:06.681Z,4.34
2023-02-02T07:20:06.650Z,4.29
2023-02-02T07:21:06.651Z,4.32
2023-02-02T07:22:06.625Z,4.32
2023-02-02T07:23:06.616Z,4.32
2023-02-02T07:24:06.607Z,4.36
2023-02-02T07:25:06.594Z,4.38
2023-02-02T07:26:06.589Z,4.39
2023-02-02T07:27:06.574Z,4.36
2023-02-02T07:28:06.578Z,4.32
2023-02-02T07:29:06.556Z,4.26
2023-02-02T07:30:06.535Z,4.32
2023-02-02T07:31:06.631Z,4.38
2023-02-02T07:32:06.514Z,4.39
2023-02-02T07:33:06.502Z,4.39
2023-02-02T07:34:06.489Z,4.43
2023-02-02T07:35:06.479Z,4.39
2023-02-02T07:36:06.479Z,4.42
2023-02-02T07:37:06.461Z,4.46
2023-02-02T07:38:06.459Z,4.51
2023-02-02T07:39:06.438Z,4.49
2023-02-02T07:40:06.419Z,4.49
2023-02-02T07:41:06.434Z,4.50
2023-02-02T07:42:06.398Z,4.49
2023-02-02T07:43:06.407Z,4.47
2023-02-02T07:44:06.402Z,4.44
2023-02-02T07:45:27.112Z,4.50
2023-02-02T07:46:07.432Z,4.51
2023-02-02T07:47:06.346Z,4.57
2023-02-02T07:48:06.338Z,4.65
2023-02-02T07:49:06.326Z,4.65
2023-02-02T07:50:06.310Z,4.65
2023-02-02T07:51:06.302Z,4.68
2023-02-02T07:52:06.292Z,4.69
2023-02-02T07:53:06.283Z,4.67
2023-02-02T07:54:06.262Z,4.65
2023-02-02T07:55:14.432Z,4.64
2023-02-02T07:56:07.268Z,4.68
2023-02-02T07:57:06.231Z,4.71
2023-02-02T07:58:06.219Z,4.71
2023-02-02T07:59:06.205Z,4.72
2023-02-02T08:00:06.238Z,4.72
2023-02-02T08:01:06.242Z,4.72
2023-02-02T08:02:06.202Z,4.75
2023-02-02T08:03:06.197Z,4.77
2023-02-02T08:04:06.159Z,4.80
2023-02-02T08:05:06.147Z,4.87
2023-02-02T08:06:06.137Z,4.88
2023-02-02T08:07:06.121Z,4.90
2023-02-02T08:08:06.112Z,4.93
2023-02-02T08:09:06.099Z,4.94
2023-02-02T08:10:06.090Z,4.96
2023-02-02T08:11:06.082Z,5.01
2023-02-02T08:12:06.069Z,5.02
2023-02-02T08:13:06.389Z,5.05
2023-02-02T08:14:06.055Z,5.06
2023-02-02T08:15:06.037Z,5.11
2023-02-02T08:16:06.082Z,5.14
2023-02-02T08:17:06.016Z,5.15
2023-02-02T08:18:06.001Z,5.15
2023-02-02T08:19:05.990Z,5.17
2023-02-02T08:20:05.986Z,5.20
2023-02-02T08:21:05.969Z,5.19
2023-02-02T08:22:05.955Z,5.20
2023-02-02T08:23:05.946Z,5.19
2023-02-02T08:24:05.941Z,5.20
2023-02-02T08:25:05.927Z,5.23
2023-02-02T08:26:05.915Z,5.26
2023-02-02T08:27:05.910Z,5.30
2023-02-02T08:28:05.893Z,5.33
2023-02-02T08:29:05.882Z,5.33
2023-02-02T08:30:05.870Z,5.35
2023-02-02T08:31:06.038Z,5.33
2023-02-02T08:32:05.872Z,5.40
2023-02-02T08:33:05.840Z,5.40
2023-02-02T08:34:05.841Z,5.41
2023-02-02T08:35:05.819Z,5.44
2023-02-02T08:36:05.804Z,5.47
2023-02-02T08:37:05.794Z,5.48
2023-02-02T08:38:05.798Z,5.49
2023-02-02T08:39:05.774Z,5.51
2023-02-02T08:40:05.772Z,5.56
2023-02-02T08:41:05.751Z,5.58
2023-02-02T08:42:05.746Z,5.60
2023-02-02T08:43:05.731Z,5.59
2023-02-02T08:44:05.716Z,5.60
2023-02-02T08:46:01.721Z,5.63
2023-02-02T08:46:05.994Z,5.66
2023-02-02T08:47:05.752Z,5.70
2023-02-02T08:48:12.163Z,5.74
2023-02-02T08:49:06.689Z,5.77
2023-02-02T08:50:05.653Z,5.84
2023-02-02T08:51:05.642Z,5.87
2023-02-02T08:52:05.631Z,5.90
2023-02-02T08:53:05.620Z,5.95
2023-02-02T08:54:05.625Z,5.99
2023-02-02T08:55:05.600Z,6.03
2023-02-02T08:56:05.589Z,6.06
2023-02-02T08:57:05.578Z,6.10
2023-02-02T08:58:05.565Z,6.13
2023-02-02T08:59:05.550Z,6.13
2023-02-02T09:00:05.541Z,6.14
2023-02-02T09:01:05.686Z,6.13
2023-02-02T09:02:05.581Z,6.14
2023-02-02T09:03:05.511Z,6.19
2023-02-02T09:04:05.515Z,6.17
2023-02-02T09:05:05.485Z,6.17
2023-02-02T09:06:05.483Z,6.17
2023-02-02T09:07:05.464Z,6.21
2023-02-02T09:08:05.448Z,6.25
2023-02-02T09:09:05.448Z,6.45
2023-02-02T09:10:05.428Z,6.63
2023-02-02T09:11:05.420Z,6.64
2023-02-02T09:12:05.408Z,6.86
2023-02-02T09:13:05.398Z,7.00
2023-02-02T09:14:05.385Z,7.15
2023-02-02T09:15:05.373Z,7.00
2023-02-02T09:16:05.457Z,7.01
2023-02-02T09:17:05.454Z,7.14
2023-02-02T09:18:05.340Z,7.30
2023-02-02T09:19:05.334Z,7.63
2023-02-02T09:20:05.342Z,7.79
2023-02-02T09:21:05.368Z,7.88
2023-02-02T09:22:05.298Z,7.96
2023-02-02T09:23:05.286Z,7.99
2023-02-02T09:24:05.274Z,8.07
2023-02-02T09:25:05.265Z,8.17
2023-02-02T09:26:05.263Z,8.18
2023-02-02T09:27:05.287Z,8.04
2023-02-02T09:28:05.229Z,8.00
2023-02-02T09:29:05.229Z,7.99
2023-02-02T09:30:05.206Z,8.07
2023-02-02T09:31:05.236Z,8.07
2023-02-02T09:32:05.249Z,8.07
2023-02-02T09:33:05.181Z,8.14
2023-02-02T09:34:05.181Z,8.25
2023-02-02T09:35:05.155Z,8.34
2023-02-02T09:36:05.168Z,8.43
2023-02-02T09:37:05.136Z,8.50
2023-02-02T09:38:05.117Z,8.64
2023-02-02T09:39:05.109Z,8.65
2023-02-02T09:40:05.100Z,8.86
2023-02-02T09:41:07.520Z,9.01
2023-02-02T09:42:05.092Z,9.03
2023-02-02T09:43:05.125Z,9.20
2023-02-02T09:44:05.060Z,9.26
2023-02-02T09:45:05.042Z,9.22
2023-02-02T09:46:05.100Z,9.20
2023-02-02T09:47:05.021Z,9.04
2023-02-02T09:48:05.011Z,9.01
2023-02-02T09:49:04.997Z,9.06
2023-02-02T09:50:04.987Z,9.03
2023-02-02T09:51:04.977Z,9.17
2023-02-02T09:52:04.988Z,9.17
2023-02-02T09:53:07.559Z,9.17
2023-02-02T09:54:04.984Z,9.24
2023-02-02T09:55:04.929Z,9.41
2023-02-02T09:56:04.919Z,9.48
2023-02-02T09:57:04.909Z,9.68
2023-02-02T09:58:04.914Z,9.89
2023-02-02T09:59:18.911Z,10.02
2023-02-02T10:00:04.876Z,9.83
2023-02-02T10:01:04.956Z,9.62
2023-02-02T10:02:04.850Z,9.62
2023-02-02T10:03:04.843Z,9.81
2023-02-02T10:04:04.860Z,9.89
2023-02-02T10:05:06.753Z,10.11
2023-02-02T10:06:04.814Z,10.35
2023-02-02T10:07:04.801Z,10.46
2023-02-02T10:08:04.814Z,10.35
2023-02-02T10:09:04.782Z,10.02
2023-02-02T10:10:04.777Z,10.14
2023-02-02T10:11:04.754Z,10.25
2023-02-02T10:12:04.743Z,10.42
2023-02-02T10:13:04.739Z,10.73
2023-02-02T10:14:04.724Z,10.91
2023-02-02T10:15:04.882Z,11.08
2023-02-02T10:16:04.803Z,10.86
2023-02-02T10:17:04.691Z,10.73
2023-02-02T10:18:06.057Z,10.78
2023-02-02T10:19:04.675Z,10.81
2023-02-02T10:20:04.664Z,10.80
2023-02-02T10:21:04.649Z,11.01
2023-02-02T10:22:04.697Z,11.16
2023-02-02T10:23:04.628Z,11.17
2023-02-02T10:24:04.657Z,11.31
2023-02-02T10:25:04.608Z,11.41
2023-02-02T10:26:04.596Z,11.63
2023-02-02T10:27:04.610Z,11.78
2023-02-02T10:28:04.566Z,11.96
2023-02-02T10:29:04.565Z,12.00
2023-02-02T10:30:04.550Z,11.70
2023-02-02T10:31:04.632Z,11.33
2023-02-02T10:32:04.665Z,10.87
2023-02-02T10:33:04.518Z,10.70
2023-02-02T10:34:04.507Z,10.60
2023-02-02T10:35:13.606Z,10.57
2023-02-02T10:36:05.508Z,11.06
2023-02-02T10:37:04.475Z,11.45
2023-02-02T10:38:04.453Z,11.41
2023-02-02T10:39:04.443Z,11.11
2023-02-02T10:40:04.530Z,11.24
2023-02-02T10:41:04.421Z,11.54
2023-02-02T10:42:04.405Z,11.64
2023-02-02T10:43:04.397Z,11.67
2023-02-02T10:44:04.389Z,11.64
2023-02-02T10:45:04.376Z,11.41
2023-02-02T10:46:04.400Z,11.45
2023-02-02T10:47:04.359Z,11.20
2023-02-02T10:48:04.337Z,10.88
2023-02-02T10:49:04.330Z,10.65
2023-02-02T10:50:04.345Z,10.42
2023-02-02T10:51:04.323Z,10.01
2023-02-02T10:52:04.297Z,9.70
2023-02-02T10:53:04.289Z,9.56
2023-02-02T10:54:04.271Z,9.26
2023-02-02T10:55:04.697Z,9.12
2023-02-02T10:56:04.276Z,8.96
2023-02-02T10:57:04.237Z,8.94
2023-02-02T10:58:04.232Z,8.97
2023-02-02T10:59:04.227Z,9.00
2023-02-02T11:00:04.205Z,9.08
2023-02-02T11:01:04.197Z,9.08
2023-02-02T11:02:20.008Z,9.10
2023-02-02T11:03:05.297Z,9.01
2023-02-02T11:04:04.163Z,8.97
2023-02-02T11:05:04.149Z,8.96
2023-02-02T11:06:04.142Z,9.04
2023-02-02T11:07:04.141Z,9.01
2023-02-02T11:08:04.125Z,8.97
2023-02-02T11:09:04.107Z,9.00
2023-02-02T11:10:04.139Z,8.96
2023-02-02T11:11:04.085Z,8.94
2023-02-02T11:12:04.101Z,8.91
2023-02-02T11:13:04.067Z,8.88
2023-02-02T11:14:04.058Z,8.73
2023-02-02T11:15:04.041Z,8.63
2023-02-02T11:16:05.880Z,8.60
2023-02-02T11:17:04.018Z,8.46
2023-02-02T11:18:04.009Z,8.45
2023-02-02T11:19:03.998Z,8.43
2023-02-02T11:20:03.999Z,8.43
2023-02-02T11:21:03.975Z,8.43
2023-02-02T11:22:03.971Z,8.39
2023-02-02T11:23:03.953Z,8.37
2023-02-02T11:24:03.941Z,8.39
2023-02-02T11:25:03.930Z,8.42
2023-02-02T11:26:03.920Z,8.47
2023-02-02T11:27:03.908Z,8.54
2023-02-02T11:28:03.924Z,8.55
2023-02-02T11:29:03.883Z,8.58
2023-02-02T11:30:03.877Z,8.65
2023-02-02T11:31:04.071Z,8.68
2023-02-02T11:32:03.883Z,8.78
2023-02-02T11:33:03.840Z,8.88
2023-02-02T11:34:03.830Z,8.93
2023-02-02T11:35:03.818Z,8.96
2023-02-02T11:36:03.840Z,9.00
2023-02-02T11:37:03.799Z,9.03
2023-02-02T11:38:03.788Z,8.96
2023-02-02T11:39:03.773Z,8.91
2023-02-02T11:40:03.765Z,8.96
2023-02-02T11:41:03.914Z,8.96
2023-02-02T11:42:03.750Z,9.01
2023-02-02T11:43:03.742Z,8.96
2023-02-02T11:44:03.745Z,9.04
2023-02-02T11:45:03.759Z,9.08
2023-02-02T11:46:03.750Z,9.10
2023-02-02T11:47:03.691Z,9.16
2023-02-02T11:48:03.675Z,9.19
2023-02-02T11:49:03.663Z,9.26
2023-02-02T11:50:03.655Z,9.34
2023-02-02T11:51:03.741Z,9.38
2023-02-02T11:52:03.637Z,9.30
2023-02-02T11:53:03.619Z,9.30
2023-02-02T11:54:03.615Z,9.27
2023-02-02T11:55:03.601Z,9.30
2023-02-02T11:56:03.588Z,9.30
2023-02-02T11:57:03.574Z,9.17
2023-02-02T11:58:03.580Z,9.06
2023-02-02T11:59:03.559Z,9.03
2023-02-02T12:00:03.568Z,8.98
2023-02-02T12:01:03.544Z,8.97
2023-02-02T12:02:03.548Z,8.96
2023-02-02T12:03:03.508Z,8.96
2023-02-02T12:04:03.585Z,8.91
2023-02-02T12:05:03.486Z,8.91
2023-02-02T12:06:03.477Z,8.88
2023-02-02T12:07:03.474Z,8.83
2023-02-02T12:08:03.460Z,8.83
2023-02-02T12:09:03.440Z,8.78
2023-02-02T12:10:03.442Z,8.76
2023-02-02T12:11:03.437Z,8.83
2023-02-02T12:12:03.473Z,8.88
2023-02-02T12:13:03.415Z,8.97
2023-02-02T12:14:03.414Z,9.01
2023-02-02T12:15:03.441Z,9.01
2023-02-02T12:16:03.493Z,9.04
2023-02-02T12:17:03.477Z,9.10
2023-02-02T12:18:03.428Z,9.08
2023-02-02T12:19:03.500Z,9.06
2023-02-02T12:20:03.495Z,9.08
2023-02-02T12:21:03.309Z,9.06
2023-02-02T12:22:03.307Z,8.98
2023-02-02T12:23:03.291Z,8.97
2023-02-02T12:24:03.307Z,8.96
2023-02-02T12:25:03.265Z,9.00
2023-02-02T12:26:03.252Z,8.96
2023-02-02T12:27:03.251Z,8.93
2023-02-02T12:28:03.231Z,8.97
2023-02-02T12:29:03.220Z,8.94
2023-02-02T12:30:03.231Z,8.97
2023-02-02T12:31:03.262Z,8.91
2023-02-02T12:32:03.274Z,8.93
2023-02-02T12:33:03.174Z,8.93
2023-02-02T12:34:03.165Z,8.94
2023-02-02T12:35:03.150Z,9.03
2023-02-02T12:36:03.149Z,8.98
2023-02-02T12:37:03.137Z,9.12
2023-02-02T12:38:03.122Z,9.22
2023-02-02T12:39:03.109Z,9.26
2023-02-02T12:40:03.107Z,9.32
2023-02-02T12:41:03.093Z,9.35
2023-02-02T12:42:03.076Z,9.38
2023-02-02T12:43:03.064Z,9.37
2023-02-02T12:44:03.080Z,9.41
2023-02-02T12:45:03.041Z,9.34
2023-02-02T12:46:03.045Z,9.35
2023-02-02T12:47:03.076Z,9.27
2023-02-02T12:48:03.041Z,9.34
2023-02-02T12:49:03.015Z,9.37
2023-02-02T12:50:02.998Z,9.40
2023-02-02T12:51:02.978Z,9.35
2023-02-02T12:52:02.963Z,9.45
2023-02-02T12:53:02.953Z,9.42
2023-02-02T12:54:32.797Z,9.44
2023-02-02T12:55:03.959Z,9.50
2023-02-02T12:56:02.923Z,9.50
2023-02-02T12:57:02.909Z,9.45
2023-02-02T12:58:02.905Z,9.48
2023-02-02T12:59:02.885Z,9.55
2023-02-02T13:00:02.882Z,9.63
2023-02-02T13:01:02.968Z,9.56
2023-02-02T13:02:02.889Z,9.55
2023-02-02T13:03:02.846Z,9.53
2023-02-02T13:04:02.856Z,9.50
2023-02-02T13:05:02.821Z,9.50
2023-02-02T13:06:02.810Z,9.48
2023-02-02T13:07:02.797Z,9.41
2023-02-02T13:08:02.813Z,9.30
2023-02-02T13:09:02.782Z,9.27
2023-02-02T13:10:02.770Z,9.26
2023-02-02T13:11:02.761Z,9.27
2023-02-02T13:12:02.743Z,9.31
2023-02-02T13:13:02.730Z,9.34
2023-02-02T13:14:02.723Z,9.26
2023-02-02T13:15:02.757Z,9.26
2023-02-02T13:16:02.758Z,9.20
2023-02-02T13:17:02.876Z,9.16